Time;durP1;ratioP1;P1;durP2;ratioP2;P2;SDS_P1;SDS_P2;PMS_P1;PMS_P2;Temp;Humidity;BMP_temperature;BMP_pressure;BME280_temperature;BME280_humidity;BME280_pressure;Samples;Min_cycle;Max_cycle;Signal;HPM_P1;HPM_P2
2022/08/27 00:02:23;;;;;;;0.50;0.30;;;;;;;21.63;100.00;94927.09;5134671;27;20415;-63
2022/08/27 00:04:53;;;;;;;0.67;0.53;;;;;;;21.52;100.00;94924.91;5134698;27;20437;-63
2022/08/27 00:07:21;;;;;;;0.40;0.33;;;;;;;21.56;100.00;94929.59;5134208;27;20430;-63
2022/08/27 00:09:50;;;;;;;0.80;0.30;;;;;;;21.63;100.00;94935.19;5134249;27;20426;-62
2022/08/27 00:12:18;;;;;;;0.70;0.57;;;;;;;21.33;100.00;94926.69;5134152;27;20821;-63
2022/08/27 00:14:47;;;;;;;0.50;0.43;;;;;;;21.33;100.00;94927.50;5134460;27;20449;-62
2022/08/27 00:17:16;;;;;;;0.43;0.40;;;;;;;21.45;100.00;94935.50;5134043;27;20466;-62
2022/08/27 00:19:44;;;;;;;0.50;0.30;;;;;;;21.61;100.00;94937.41;5133982;27;20469;-63
2022/08/27 00:22:14;;;;;;;0.50;0.30;;;;;;;21.61;100.00;94932.81;5133979;27;20498;-63
2022/08/27 00:24:42;;;;;;;0.50;0.30;;;;;;;21.67;100.00;94936.81;5134137;27;20423;-63
2022/08/27 00:27:16;;;;;;;0.60;0.33;;;;;;;21.51;100.00;94911.75;5134170;27;20423;-62
2022/08/27 00:29:45;;;;;;;0.40;0.20;;;;;;;21.55;100.00;94934.22;5134091;27;20485;-62
2022/08/27 00:32:14;;;;;;;0.50;0.47;;;;;;;21.46;100.00;94937.06;5134062;27;20502;-63
2022/08/27 00:34:42;;;;;;;0.60;0.47;;;;;;;20.99;100.00;94938.88;5133450;27;20534;-63
2022/08/27 00:37:11;;;;;;;0.70;0.40;;;;;;;21.15;100.00;94942.41;5133824;27;20454;-63
2022/08/27 00:39:41;;;;;;;4.93;0.43;;;;;;;21.26;100.00;94940.78;5133648;27;20454;-63
2022/08/27 00:42:09;;;;;;;0.50;0.37;;;;;;;21.29;100.00;94928.53;5133483;27;20599;-63
2022/08/27 00:44:38;;;;;;;0.50;0.50;;;;;;;21.30;100.00;94936.25;5133523;27;20918;-62
2022/08/27 00:47:11;;;;;;;0.53;0.53;;;;;;;21.29;100.00;94926.63;5133399;27;20427;-62
2022/08/27 00:49:44;;;;;;;0.50;0.30;;;;;;;21.21;100.00;94932.97;5133577;27;20493;-62
2022/08/27 00:52:18;;;;;;;0.50;0.30;;;;;;;21.14;100.00;94935.47;5133621;27;20455;-62
2022/08/27 00:54:49;;;;;;;0.63;0.50;;;;;;;21.22;100.00;94945.31;5133627;27;20425;-62
2022/08/27 00:57:18;;;;;;;0.50;0.30;;;;;;;21.33;100.00;94935.56;5133640;27;20461;-62
2022/08/27 00:59:46;;;;;;;0.50;0.40;;;;;;;21.13;100.00;94922.31;5133664;27;20879;-62
2022/08/27 01:02:24;;;;;;;0.40;0.20;;;;;;;21.24;100.00;94940.34;5133357;27;20466;-62
2022/08/27 01:05:01;;;;;;;0.50;0.33;;;;;;;20.98;100.00;94925.72;5132839;27;20856;-62
2022/08/27 01:07:31;;;;;;;0.53;0.53;;;;;;;21.03;100.00;94942.44;5133061;27;20430;-62
2022/08/27 01:10:05;;;;;;;0.47;0.27;;;;;;;20.99;100.00;94944.28;5133432;27;20506;-62
2022/08/27 01:12:35;;;;;;;2.30;0.60;;;;;;;21.05;100.00;94950.19;5132836;27;20506;-62
2022/08/27 01:15:08;;;;;;;0.50;0.40;;;;;;;20.97;100.00;94951.13;5133131;27;20418;-62
2022/08/27 01:17:42;;;;;;;1.73;0.53;;;;;;;20.70;100.00;94949.97;5132926;27;20468;-62
2022/08/27 01:20:18;;;;;;;11.93;1.17;;;;;;;20.45;100.00;94949.25;5133397;27;20442;-62
2022/08/27 01:22:56;;;;;;;1.80;1.03;;;;;;;20.34;100.00;94950.09;5132753;27;20564;-61
2022/08/27 01:25:27;;;;;;;1.17;1.07;;;;;;;20.22;100.00;94932.78;5132976;27;20458;-63
2022/08/27 01:28:00;;;;;;;0.77;0.47;;;;;;;20.54;100.00;94949.13;5132879;27;20673;-62
2022/08/27 01:30:30;;;;;;;0.50;0.30;;;;;;;20.15;100.00;94888.75;5132726;27;20468;-63
2022/08/27 01:32:58;;;;;;;1.70;0.57;;;;;;;20.55;100.00;94953.38;5132529;27;20427;-63
2022/08/27 01:35:27;;;;;;;0.70;0.57;;;;;;;20.59;100.00;94951.59;5132832;27;21017;-62
2022/08/27 01:37:55;;;;;;;0.93;0.47;;;;;;;20.64;100.00;94952.16;5132754;28;20518;-62
2022/08/27 01:40:25;;;;;;;1.73;1.63;;;;;;;20.69;100.00;94951.13;5132697;28;20427;-62
2022/08/27 01:42:57;;;;;;;0.50;0.30;;;;;;;20.37;100.00;94900.94;5132923;28;20458;-62
2022/08/27 01:45:28;;;;;;;0.50;0.33;;;;;;;20.77;100.00;94948.25;5132689;28;20470;-62
2022/08/27 01:47:57;;;;;;;0.70;0.57;;;;;;;20.72;100.00;94958.53;5133053;27;20446;-62
2022/08/27 01:50:28;;;;;;;0.40;0.30;;;;;;;20.58;100.00;94958.09;5132563;28;20533;-62
2022/08/27 01:52:57;;;;;;;0.60;0.30;;;;;;;20.45;100.00;94951.16;5132695;27;20521;-62
2022/08/27 01:55:27;;;;;;;0.50;0.40;;;;;;;20.31;100.00;94958.81;5132968;27;20431;-62
2022/08/27 01:57:56;;;;;;;0.50;0.40;;;;;;;20.25;100.00;94956.38;5132937;28;20498;-62
2022/08/27 02:00:28;;;;;;;0.60;0.50;;;;;;;20.15;100.00;94954.09;5132554;28;20902;-62
2022/08/27 02:02:58;;;;;;;0.50;0.30;;;;;;;20.24;100.00;94956.69;5132764;28;20561;-62
2022/08/27 02:05:28;;;;;;;0.40;0.30;;;;;;;20.23;100.00;94945.16;5132525;27;20487;-61
2022/08/27 02:07:56;;;;;;;0.50;0.30;;;;;;;19.88;100.00;94906.38;5132782;28;20450;-62
2022/08/27 02:10:30;;;;;;;0.70;0.50;;;;;;;20.22;100.00;94957.00;5132411;28;20431;-62
2022/08/27 02:12:59;;;;;;;0.40;0.30;;;;;;;20.10;100.00;94948.16;5132457;28;20477;-62
2022/08/27 02:15:28;;;;;;;0.97;0.87;;;;;;;20.11;100.00;94952.44;5132583;27;20840;-61
2022/08/27 02:17:56;;;;;;;0.70;0.67;;;;;;;20.13;100.00;94953.66;5136809;27;20421;-62
2022/08/27 02:20:25;;;;;;;4.10;0.40;;;;;;;20.10;100.00;94957.03;5136316;27;20869;-61
2022/08/27 02:22:56;;;;;;;0.53;0.43;;;;;;;19.92;100.00;94947.63;5136333;27;20462;-61
2022/08/27 02:25:27;;;;;;;0.60;0.40;;;;;;;19.94;100.00;94952.66;5136531;27;20426;-61
2022/08/27 02:27:58;;;;;;;0.53;0.40;;;;;;;19.93;100.00;94951.09;5136277;27;20521;-61
2022/08/27 02:30:28;;;;;;;0.60;0.47;;;;;;;19.84;100.00;94956.56;5136154;27;20483;-61
2022/08/27 02:32:57;;;;;;;0.50;0.30;;;;;;;19.85;100.00;94950.09;5136195;27;20446;-61
2022/08/27 02:35:25;;;;;;;7.43;1.00;;;;;;;19.76;100.00;94952.09;5136056;27;20429;-61
2022/08/27 02:37:53;;;;;;;0.50;0.40;;;;;;;19.61;100.00;94958.91;5136057;27;20510;-61
2022/08/27 02:40:24;;;;;;;0.53;0.40;;;;;;;19.69;100.00;94959.94;5135988;27;20457;-61
2022/08/27 02:42:54;;;;;;;0.50;0.30;;;;;;;19.77;100.00;94963.63;5136118;27;20461;-61
2022/08/27 02:45:22;;;;;;;0.40;0.20;;;;;;;19.69;100.00;94961.81;5135820;27;20469;-61
2022/08/27 02:47:51;;;;;;;0.50;0.40;;;;;;;19.66;100.00;94957.91;5136037;27;20455;-62
2022/08/27 02:50:19;;;;;;;0.40;0.20;;;;;;;19.72;100.00;94961.94;5136102;27;20871;-62
2022/08/27 02:52:54;;;;;;;0.53;0.53;;;;;;;19.58;100.00;94967.63;5135837;27;20470;-62
2022/08/27 02:55:23;;;;;;;0.77;0.77;;;;;;;19.65;100.00;94967.09;5135660;27;20458;-62
2022/08/27 02:57:51;;;;;;;0.80;0.40;;;;;;;19.59;100.00;94966.53;5135636;27;20472;-63
2022/08/27 03:00:23;;;;;;;0.50;0.43;;;;;;;19.54;100.00;94968.66;5135558;27;20419;-62
2022/08/27 03:02:52;;;;;;;0.50;0.40;;;;;;;19.59;100.00;94963.84;5135713;27;20548;-62
2022/08/27 03:05:21;;;;;;;9.20;1.57;;;;;;;19.56;100.00;94964.50;5135523;27;20427;-62
2022/08/27 03:07:49;;;;;;;0.60;0.40;;;;;;;19.50;100.00;94960.47;5135744;27;20501;-62
2022/08/27 03:10:20;;;;;;;0.60;0.50;;;;;;;19.54;100.00;94965.97;5135734;27;20459;-62
2022/08/27 03:12:49;;;;;;;0.40;0.20;;;;;;;19.30;100.00;94893.34;5135288;27;20426;-62
2022/08/27 03:15:19;;;;;;;0.50;0.30;;;;;;;19.68;100.00;94966.44;5135342;27;20926;-62
2022/08/27 03:20:39;;;;;;;0.77;0.77;;;;;;;19.61;100.00;94968.88;5135207;27;20965;-62
2022/08/27 03:23:09;;;;;;;0.50;0.40;;;;;;;19.70;100.00;94974.94;5135209;27;20565;-62
2022/08/27 03:25:38;;;;;;;0.70;0.40;;;;;;;19.51;100.00;94956.66;5135425;27;20501;-62
2022/08/27 03:28:06;;;;;;;0.40;0.20;;;;;;;19.59;100.00;94977.28;5135148;27;20526;-62
2022/08/27 03:30:51;;;;;;;0.60;0.60;;;;;;;19.60;100.00;94981.56;5135347;27;20445;-62
2022/08/27 03:33:22;;;;;;;0.53;0.37;;;;;;;19.30;100.00;94982.78;5134827;27;20462;-61
2022/08/27 03:35:51;;;;;;;0.70;0.60;;;;;;;19.01;100.00;94983.69;5134944;27;20918;-62
2022/08/27 03:38:20;;;;;;;0.77;0.70;;;;;;;18.60;100.00;94969.50;5134904;27;20454;-62
2022/08/27 03:40:49;;;;;;;0.60;0.60;;;;;;;18.62;100.00;94994.16;5134644;27;20985;-62
2022/08/27 03:43:19;;;;;;;0.50;0.50;;;;;;;18.38;100.00;94994.75;5134737;27;20549;-62
2022/08/27 03:45:49;;;;;;;0.70;0.50;;;;;;;18.40;100.00;94955.75;5134703;27;20479;-62
2022/08/27 03:48:32;;;;;;;1.47;0.73;;;;;;;19.10;100.00;94988.97;5135020;27;20418;-62
2022/08/27 03:51:05;;;;;;;0.50;0.50;;;;;;;18.96;100.00;94951.69;5134587;27;20462;-61
2022/08/27 03:53:34;;;;;;;0.40;0.37;;;;;;;19.34;100.00;94990.97;5134658;27;20413;-62
2022/08/27 03:56:04;;;;;;;0.50;0.40;;;;;;;19.25;100.00;94992.97;5134495;27;20891;-62
2022/08/27 03:58:32;;;;;;;0.70;0.60;;;;;;;19.37;100.00;94990.34;5134093;27;20431;-61
2022/08/27 04:01:01;;;;;;;0.50;0.40;;;;;;;19.15;100.00;94994.16;5133999;27;20446;-62
2022/08/27 04:03:31;;;;;;;0.50;0.40;;;;;;;19.28;100.00;94997.66;5134077;27;20490;-62
2022/08/27 04:06:00;;;;;;;0.50;0.50;;;;;;;19.18;100.00;94982.75;5133983;27;20502;-61
2022/08/27 04:08:28;;;;;;;0.67;0.60;;;;;;;19.52;100.00;94992.38;5134027;27;20473;-61
2022/08/27 04:10:57;;;;;;;0.60;0.50;;;;;;;19.68;100.00;95004.09;5134388;27;20449;-61
2022/08/27 04:13:26;;;;;;;0.57;0.57;;;;;;;19.29;100.00;95007.31;5133971;27;20516;-62
2022/08/27 04:15:55;;;;;;;1.13;1.13;;;;;;;19.45;100.00;95006.38;5134220;27;20510;-62
2022/08/27 04:18:24;;;;;;;1.80;0.40;;;;;;;19.35;100.00;95012.16;5133927;27;20838;-62
2022/08/27 04:20:54;;;;;;;0.53;0.50;;;;;;;19.66;100.00;95010.91;5134155;27;20856;-55
2022/08/27 04:23:22;;;;;;;0.80;0.80;;;;;;;19.75;100.00;95017.75;5133801;27;20553;-55
2022/08/27 04:25:51;;;;;;;0.90;0.60;;;;;;;19.86;100.00;95020.81;5134109;27;20857;-54
2022/08/27 04:28:20;;;;;;;12.13;0.50;;;;;;;20.10;100.00;95023.50;5133567;27;20837;-54
2022/08/27 04:30:48;;;;;;;0.50;0.40;;;;;;;20.31;100.00;95021.53;5133597;27;20454;-54
2022/08/27 04:33:17;;;;;;;0.50;0.30;;;;;;;20.43;100.00;95018.03;5133264;27;20986;-54
2022/08/27 04:35:45;;;;;;;12.83;0.60;;;;;;;20.59;100.00;95027.00;5133736;27;20445;-54
2022/08/27 04:38:15;;;;;;;1.10;0.60;;;;;;;20.78;100.00;95027.16;5132834;27;21017;-53
2022/08/27 04:43:28;;;;;;;0.40;0.30;;;;;;;19.81;100.00;95021.78;5133511;27;20572;-53
2022/08/27 04:45:57;;;;;;;0.77;0.77;;;;;;;19.78;100.00;95021.69;5133307;27;20418;-53
2022/08/27 04:48:25;;;;;;;0.80;0.80;;;;;;;20.10;100.00;95020.81;5133186;27;20947;-53
2022/08/27 04:50:54;;;;;;;0.80;0.53;;;;;;;19.86;100.00;95026.94;5133179;27;20455;-53
2022/08/27 04:53:24;;;;;;;0.63;0.63;;;;;;;20.30;100.00;95019.94;5133385;27;21004;-53
2022/08/27 04:55:55;;;;;;;0.40;0.30;;;;;;;20.68;100.00;95030.31;5133109;27;20481;-52
2022/08/27 04:58:25;;;;;;;0.50;0.30;;;;;;;20.94;100.00;95028.03;5133112;27;20521;-52
2022/08/27 05:00:55;;;;;;;7.83;0.50;;;;;;;21.02;100.00;95029.81;5132817;27;20518;-52
2022/08/27 05:03:24;;;;;;;0.40;0.30;;;;;;;20.80;100.00;95033.00;5132958;27;20997;-52
2022/08/27 05:05:58;;;;;;;0.40;0.30;;;;;;;20.69;100.00;95032.69;5132991;27;20954;-52
2022/08/27 05:08:28;;;;;;;1.33;1.00;;;;;;;20.56;100.00;95028.44;5133195;27;20503;-52
2022/08/27 05:10:57;;;;;;;1.17;0.50;;;;;;;20.33;100.00;95031.94;5132859;27;20834;-52
2022/08/27 05:13:26;;;;;;;0.57;0.50;;;;;;;20.36;100.00;95033.97;5133267;27;20523;-52
2022/08/27 05:15:59;;;;;;;0.90;0.90;;;;;;;19.20;100.00;94889.16;5132915;27;20458;-52
2022/08/27 05:18:28;;;;;;;0.73;0.40;;;;;;;20.58;100.00;95041.56;5132941;27;20453;-51
2022/08/27 05:20:57;;;;;;;0.63;0.60;;;;;;;20.38;100.00;95037.09;5132872;27;20427;-53
2022/08/27 05:23:26;;;;;;;0.70;0.67;;;;;;;20.08;100.00;95039.19;5132744;27;20981;-52
2022/08/27 05:25:57;;;;;;;0.97;0.87;;;;;;;19.88;100.00;95018.56;5132760;27;20427;-52
2022/08/27 05:28:28;;;;;;;1.30;1.10;;;;;;;19.72;100.00;95026.50;5132878;27;20998;-52
2022/08/27 05:31:06;;;;;;;0.90;0.83;;;;;;;19.68;100.00;95041.72;5132738;27;20426;-52
2022/08/27 05:33:37;;;;;;;0.70;0.67;;;;;;;19.83;100.00;95026.84;5132358;27;20481;-53
2022/08/27 05:36:07;;;;;;;0.77;0.60;;;;;;;19.75;100.00;95025.03;5132671;27;20509;-52
2022/08/27 05:38:35;;;;;;;1.87;0.77;;;;;;;19.95;100.00;95049.16;5132540;28;20465;-52
2022/08/27 05:41:09;;;;;;;4.73;1.37;;;;;;;19.95;100.00;95046.47;5132855;28;20510;-52
2022/08/27 05:43:38;;;;;;;2.33;2.23;;;;;;;19.74;100.00;95035.00;5132423;28;20458;-52
2022/08/27 05:46:10;;;;;;;0.60;0.50;;;;;;;20.31;100.00;95045.75;5132833;28;20453;-52
2022/08/27 05:48:40;;;;;;;1.27;1.00;;;;;;;21.05;100.00;95039.88;5132647;28;20426;-52
2022/08/27 05:51:13;;;;;;;3.00;1.53;;;;;;;20.98;100.00;95047.78;5135795;27;20514;-52
2022/08/27 05:53:55;;;;;;;0.83;0.83;;;;;;;20.36;100.00;94998.97;5137113;27;20410;-52
2022/08/27 05:56:28;;;;;;;0.87;0.87;;;;;;;21.34;100.00;95044.19;5136571;27;20513;-52
2022/08/27 06:01:45;;;;;;;0.50;0.50;;;;;;;21.34;100.00;95044.19;5136558;27;20466;-52
2022/08/27 06:04:15;;;;;;;13.33;0.73;;;;;;;21.50;100.00;95042.34;5136499;27;20470;-52
2022/08/27 06:06:45;;;;;;;1.43;1.33;;;;;;;21.97;100.00;95055.91;5136522;27;20434;-53
2022/08/27 06:09:16;;;;;;;0.83;0.83;;;;;;;21.84;100.00;94992.34;5136462;27;20990;-52
2022/08/27 06:11:46;;;;;;;3.07;2.97;;;;;;;22.32;100.00;95042.50;5136441;27;20479;-52
2022/08/27 06:14:15;;;;;;;0.60;0.60;;;;;;;23.08;100.00;95047.34;5136281;27;20913;-52
2022/08/27 06:16:44;;;;;;;0.97;0.77;;;;;;;22.92;100.00;95044.69;5136256;27;20513;-52
2022/08/27 06:19:12;;;;;;;1.03;0.97;;;;;;;23.22;100.00;95044.94;5136244;27;21158;-52
2022/08/27 06:21:41;;;;;;;2.10;0.93;;;;;;;23.71;100.00;95047.84;5136300;27;20910;-52
2022/08/27 06:24:12;;;;;;;0.90;0.70;;;;;;;24.03;100.00;95044.56;5136000;27;20833;-51
2022/08/27 06:26:41;;;;;;;0.70;0.67;;;;;;;24.00;97.00;95048.00;5136077;27;20470;-51
2022/08/27 06:29:13;;;;;;;4.20;2.17;;;;;;;23.68;99.45;95041.22;5136148;27;20422;-51
2022/08/27 06:31:42;;;;;;;0.77;0.77;;;;;;;24.20;98.72;95023.59;5136228;27;20505;-51
2022/08/27 06:34:11;;;;;;;0.73;0.73;;;;;;;24.40;93.67;95041.34;5135768;27;20569;-51
2022/08/27 06:36:41;;;;;;;3.70;1.60;;;;;;;24.64;87.81;95020.03;5135864;27;20440;-51
2022/08/27 06:39:14;;;;;;;0.77;0.77;;;;;;;25.13;90.13;95040.88;5135919;27;20861;-51
2022/08/27 06:41:44;;;;;;;2.07;1.13;;;;;;;25.28;84.89;95042.59;5135866;27;20422;-58
2022/08/27 06:44:14;;;;;;;0.80;0.80;;;;;;;25.62;83.65;95033.38;5135819;27;20541;-57
2022/08/27 06:46:43;;;;;;;1.10;1.00;;;;;;;25.92;81.62;95027.84;5135090;27;20437;-58
2022/08/27 06:49:12;;;;;;;4.10;0.60;;;;;;;25.79;80.89;95035.47;5136086;27;20501;-64
2022/08/27 06:51:45;;;;;;;0.60;0.60;;;;;;;26.25;77.92;95032.44;5135648;27;20430;-64
2022/08/27 06:54:16;;;;;;;2.00;0.60;;;;;;;26.26;74.27;95031.28;5135828;27;20423;-65
2022/08/27 06:56:44;;;;;;;2.20;1.17;;;;;;;26.16;74.35;95031.97;5135985;27;20442;-66
2022/08/27 06:59:16;;;;;;;1.43;1.33;;;;;;;26.34;75.76;95030.97;5135548;27;20474;-68
2022/08/27 07:01:47;;;;;;;0.87;0.73;;;;;;;26.24;69.86;95033.59;5134669;27;20476;-70
2022/08/27 07:04:19;;;;;;;0.50;0.40;;;;;;;26.73;66.79;94973.38;5135320;27;20558;-73
2022/08/27 07:06:49;;;;;;;1.13;0.90;;;;;;;26.88;63.81;95026.72;5135594;27;20510;-74
2022/08/27 07:09:19;;;;;;;0.80;0.60;;;;;;;26.52;65.59;95028.38;5135612;27;20526;-72
2022/08/27 07:11:47;;;;;;;7.33;0.60;;;;;;;27.35;60.92;95026.53;5135346;27;20934;-72
2022/08/27 07:14:17;;;;;;;0.63;0.50;;;;;;;27.78;61.97;95026.75;5135305;27;20435;-71
2022/08/27 07:16:46;;;;;;;1.00;1.00;;;;;;;28.03;60.83;95024.88;5135023;27;20454;-70
2022/08/27 07:19:17;;;;;;;1.37;1.30;;;;;;;27.92;55.35;95030.25;5135170;27;20910;-70
2022/08/27 07:21:48;;;;;;;0.70;0.70;;;;;;;27.83;55.22;95027.13;5135414;27;20451;-70
2022/08/27 07:24:17;;;;;;;0.70;0.70;;;;;;;27.98;57.21;95038.84;5135041;27;20545;-72
2022/08/27 07:26:46;;;;;;;4.37;1.00;;;;;;;28.15;56.22;95033.44;5135057;27;20455;-72
2022/08/27 07:29:15;;;;;;;0.83;0.80;;;;;;;29.13;56.41;95023.63;5135069;27;20935;-71
2022/08/27 07:31:45;;;;;;;1.23;1.23;;;;;;;28.28;57.17;95033.84;5135166;27;20488;-70
2022/08/27 07:34:13;;;;;;;0.90;0.90;;;;;;;28.15;55.43;95036.16;5134740;27;20500;-69
2022/08/27 07:36:42;;;;;;;2.60;1.53;;;;;;;28.48;55.81;95031.50;5134985;27;20831;-69
2022/08/27 07:39:12;;;;;;;2.10;1.07;;;;;;;28.33;57.50;95038.91;5134923;27;20462;-68
2022/08/27 07:44:26;;;;;;;3.03;0.70;;;;;;;28.31;55.19;95033.03;5135981;27;20562;-68
2022/08/27 07:46:59;;;;;;;3.17;1.23;;;;;;;28.50;57.47;95035.41;5134531;27;20515;-69
2022/08/27 07:49:28;;;;;;;0.70;0.60;;;;;;;29.45;55.40;95029.00;5134553;27;20458;-68
2022/08/27 07:51:57;;;;;;;1.33;1.23;;;;;;;28.82;52.27;95033.44;5134614;27;20489;-68
2022/08/27 07:54:25;;;;;;;1.07;0.97;;;;;;;29.19;57.41;95024.78;5134557;27;20456;-68
2022/08/27 07:56:54;;;;;;;1.83;1.73;;;;;;;29.98;50.86;95026.78;5134230;27;20533;-66
2022/08/27 07:59:24;;;;;;;0.83;0.83;;;;;;;30.15;49.17;95033.34;5134494;27;20493;-66
2022/08/27 08:01:53;;;;;;;0.50;0.50;;;;;;;30.06;47.13;95024.78;5134386;27;20985;-66
2022/08/27 08:04:25;;;;;;;0.50;0.50;;;;;;;30.47;48.14;95017.50;5134299;27;20873;-65
2022/08/27 08:06:54;;;;;;;0.40;0.40;;;;;;;31.02;42.94;95014.66;5134570;27;20465;-65
2022/08/27 08:09:23;;;;;;;0.70;0.50;;;;;;;31.05;41.97;95013.84;5134315;27;20520;-65
2022/08/27 08:11:53;;;;;;;0.70;0.70;;;;;;;31.02;44.65;95022.09;5134099;27;20438;-64
2022/08/27 08:14:21;;;;;;;1.73;1.63;;;;;;;31.02;42.50;95022.84;5133454;27;20458;-65
2022/08/27 08:16:50;;;;;;;1.43;1.07;;;;;;;31.31;40.70;95018.63;5134433;27;20423;-63
2022/08/27 08:19:18;;;;;;;0.60;0.40;;;;;;;31.68;40.95;95011.53;5134016;27;20447;-64
2022/08/27 08:21:48;;;;;;;2.43;1.03;;;;;;;31.42;41.17;95018.53;5133912;27;20509;-63
2022/08/27 08:24:26;;;;;;;1.87;1.60;;;;;;;31.25;40.65;95012.03;5133915;27;20512;-65
2022/08/27 08:26:55;;;;;;;0.60;0.60;;;;;;;31.02;42.39;95031.06;5133929;27;20440;-64
2022/08/27 08:29:23;;;;;;;0.60;0.57;;;;;;;31.90;41.20;95010.09;5129887;27;20535;-67
2022/08/27 08:31:52;;;;;;;0.83;0.83;;;;;;;31.76;43.60;95004.78;5130980;27;20547;-63
2022/08/27 08:34:20;;;;;;;0.60;0.60;;;;;;;32.03;42.38;95003.63;5130849;27;20570;-63
2022/08/27 08:36:50;;;;;;;0.90;0.60;;;;;;;31.21;43.08;94974.94;5131962;27;20441;-63
2022/08/27 08:39:23;;;;;;;1.13;1.03;;;;;;;31.45;40.55;95014.97;5131478;27;20438;-63
2022/08/27 08:41:54;;;;;;;0.77;0.77;;;;;;;31.75;41.18;95012.22;5133129;27;20914;-63
2022/08/27 08:44:31;;;;;;;0.70;0.67;;;;;;;31.76;39.06;94974.63;5130992;27;20428;-62
2022/08/27 08:47:07;;;;;;;0.40;0.37;;;;;;;33.34;36.66;94984.94;5133489;27;20799;-63
2022/08/27 08:49:44;;;;;;;1.37;1.27;;;;;;;32.75;37.29;95008.78;5133113;27;21001;-62
2022/08/27 08:52:25;;;;;;;0.50;0.50;;;;;;;32.74;37.95;95002.53;5132249;27;20443;-64
2022/08/27 08:55:08;;;;;;;8.40;0.80;;;;;;;33.34;38.14;95001.44;5112344;28;20438;-63
2022/08/27 08:57:42;;;;;;;1.93;0.60;;;;;;;32.78;36.80;95000.50;5112609;28;20461;-63
2022/08/27 09:00:13;;;;;;;1.17;0.60;;;;;;;33.75;36.58;94990.75;5112516;28;21140;-62
2022/08/27 09:02:49;;;;;;;0.73;0.73;;;;;;;34.03;35.20;94994.84;5112204;28;20467;-62
2022/08/27 09:05:17;;;;;;;0.50;0.50;;;;;;;34.18;36.50;94989.84;5112068;28;20462;-63
2022/08/27 09:07:58;;;;;;;0.73;0.73;;;;;;;34.15;37.09;94993.47;5112784;28;20502;-62
2022/08/27 09:10:52;;;;;;;0.83;0.83;;;;;;;34.51;36.27;94996.88;5111689;28;20438;-63
2022/08/27 09:13:25;;;;;;;1.90;0.63;;;;;;;34.74;33.67;94987.69;5111679;28;20423;-62
2022/08/27 09:15:57;;;;;;;0.40;0.37;;;;;;;35.03;32.35;94986.53;5112426;28;20456;-64
2022/08/27 09:18:26;;;;;;;1.00;1.00;;;;;;;35.12;33.72;94983.16;5112276;28;20920;-60
2022/08/27 09:21:05;;;;;;;0.40;0.30;;;;;;;35.75;31.66;94983.34;5111734;27;20844;-62
2022/08/27 09:23:45;;;;;;;0.40;0.33;;;;;;;36.68;29.92;94979.28;5132407;27;20519;-66
2022/08/27 09:26:22;;;;;;;0.50;0.40;;;;;;;35.87;32.02;94974.34;5132301;27;20496;-62
2022/08/27 09:31:43;;;;;;;0.97;0.97;;;;;;;35.39;31.66;94930.47;5132433;27;20982;-62
2022/08/27 09:34:11;;;;;;;1.20;1.10;;;;;;;34.67;31.84;94972.13;5111125;28;20512;-62
2022/08/27 09:36:58;;;;;;;1.20;1.20;;;;;;;33.92;31.98;94950.34;5111402;28;20503;-62
2022/08/27 09:39:35;;;;;;;0.73;0.73;;;;;;;35.16;31.36;94961.81;5111881;28;20479;-64
2022/08/27 09:42:05;;;;;;;1.00;0.70;;;;;;;35.88;32.21;94959.31;5111608;28;20460;-63
2022/08/27 09:44:44;;;;;;;0.70;0.70;;;;;;;35.89;31.93;94966.38;5111430;28;20862;-62
2022/08/27 09:47:18;;;;;;;0.80;0.73;;;;;;;36.06;33.15;94958.78;5111863;28;20702;-62
2022/08/27 09:49:47;;;;;;;0.50;0.50;;;;;;;35.45;30.94;94959.78;5126721;28;20447;-62
2022/08/27 09:52:31;;;;;;;0.93;0.40;;;;;;;36.08;31.35;94956.34;5132232;27;20272;-62
2022/08/27 09:55:07;;;;;;;0.50;0.40;;;;;;;36.57;31.47;94948.47;5132004;27;20628;-61
2022/08/27 09:57:41;;;;;;;0.60;0.60;;;;;;;36.36;31.45;94929.84;5131954;27;20280;-63
2022/08/27 10:00:15;;;;;;;0.40;0.40;;;;;;;36.64;29.06;94939.94;5132737;27;20277;-62
2022/08/27 10:02:52;;;;;;;0.60;0.60;;;;;;;36.70;30.28;94954.75;5132287;27;20234;-64
2022/08/27 10:05:27;;;;;;;0.70;0.60;;;;;;;37.57;29.03;94949.31;5131909;27;20217;-63
2022/08/27 10:08:02;;;;;;;0.47;0.47;;;;;;;36.94;29.42;94908.19;5132333;27;20190;-62
2022/08/27 10:10:44;;;;;;;1.20;1.10;;;;;;;36.66;30.79;94946.56;5132325;27;20190;-62
2022/08/27 10:13:18;;;;;;;0.50;0.40;;;;;;;37.18;29.88;94936.91;5131680;27;20279;-63
2022/08/27 10:16:01;;;;;;;0.47;0.40;;;;;;;37.33;29.19;94937.91;5131997;27;20219;-63
2022/08/27 10:18:40;;;;;;;1.60;0.50;;;;;;;37.92;29.24;94942.44;5132701;27;20563;-62
2022/08/27 10:21:15;;;;;;;0.60;0.40;;;;;;;38.48;28.94;94942.19;5131524;27;20194;-63
2022/08/27 10:23:52;;;;;;;0.38;0.30;;;;;;;38.45;29.02;94940.34;5131690;27;20723;-63
2022/08/27 10:26:27;;;;;;;0.52;0.52;;;;;;;37.30;31.17;94897.34;5132011;27;20304;-63
2022/08/27 10:29:13;;;;;;;1.30;1.25;;;;;;;36.42;29.77;94936.34;5132416;27;20190;-63
2022/08/27 10:31:52;;;;;;;0.43;0.40;;;;;;;36.40;31.73;94936.03;5131844;27;20553;-63
2022/08/27 10:34:34;;;;;;;0.50;0.40;;;;;;;37.30;30.58;94927.75;5131120;27;20326;-63
2022/08/27 10:37:13;;;;;;;1.00;1.00;;;;;;;36.48;31.38;94929.84;5133272;27;20282;-64
2022/08/27 10:40:12;;;;;;;5.97;2.20;;;;;;;36.87;29.90;94923.75;5135753;27;20192;-63
2022/08/27 10:42:53;;;;;;;1.20;0.60;;;;;;;38.09;29.61;94927.13;5135494;27;20199;-64
2022/08/27 10:45:41;;;;;;;0.50;0.50;;;;;;;37.61;30.17;94925.06;5135949;27;20271;-63
2022/08/27 10:48:23;;;;;;;1.63;0.60;;;;;;;37.69;30.33;94931.88;5135881;27;20590;-64
2022/08/27 10:50:56;;;;;;;1.52;0.50;;;;;;;37.57;28.63;94925.22;5135148;27;20274;-63
2022/08/27 10:53:37;;;;;;;0.98;0.90;;;;;;;37.52;27.55;94923.78;5135447;27;20196;-64
2022/08/27 10:56:14;;;;;;;0.43;0.40;;;;;;;36.63;26.27;94921.84;5135097;27;20685;-64
2022/08/27 10:59:06;;;;;;;0.35;0.35;;;;;;;37.57;25.95;94918.91;5135560;27;20187;-63
2022/08/27 11:01:46;;;;;;;0.43;0.43;;;;;;;37.64;25.70;94894.50;5135227;27;20613;-62
2022/08/27 11:04:20;;;;;;;0.47;0.47;;;;;;;37.47;27.58;94885.66;5134677;27;20191;-63
2022/08/27 11:06:56;;;;;;;0.98;0.70;;;;;;;36.70;27.84;94858.09;5134944;27;20209;-63
2022/08/27 11:09:36;;;;;;;0.40;0.30;;;;;;;37.37;28.20;94906.16;5135657;27;20263;-63
2022/08/27 11:12:09;;;;;;;0.98;0.70;;;;;;;37.20;27.17;94902.06;5135110;27;20324;-62
2022/08/27 11:14:48;;;;;;;0.40;0.30;;;;;;;37.60;29.00;94896.63;5135119;27;20191;-56
2022/08/27 11:17:23;;;;;;;1.15;0.70;;;;;;;37.22;26.71;94891.31;5135343;27;20647;-56
2022/08/27 11:19:57;;;;;;;0.60;0.60;;;;;;;37.18;25.16;94896.22;5134619;27;20204;-56
2022/08/27 11:22:33;;;;;;;1.13;1.13;;;;;;;36.35;26.53;94900.69;5135166;27;20609;-56
2022/08/27 11:25:09;;;;;;;0.50;0.50;;;;;;;36.74;26.77;94891.88;5134620;27;20226;-55
2022/08/27 11:27:39;;;;;;;0.40;0.40;;;;;;;37.47;25.93;94891.19;5134445;27;20726;-55
2022/08/27 11:30:16;;;;;;;0.50;0.50;;;;;;;37.36;24.37;94890.03;5134696;27;20221;-55
2022/08/27 11:32:54;;;;;;;2.83;0.50;;;;;;;37.66;24.77;94882.97;5134404;27;20234;-55
2022/08/27 11:35:33;;;;;;;0.60;0.40;;;;;;;38.04;25.22;94862.09;5134308;27;20196;-55
2022/08/27 11:38:30;;;;;;;0.50;0.50;;;;;;;36.96;26.64;94892.69;5134604;27;20278;-55
2022/08/27 11:41:16;;;;;;;0.80;0.80;;;;;;;36.47;26.07;94891.59;5133611;27;20275;-55
2022/08/27 11:43:46;;;;;;;2.17;0.60;;;;;;;37.42;26.68;94885.50;5134073;27;20240;-55
2022/08/27 11:46:23;;;;;;;5.00;0.40;;;;;;;38.07;25.65;94885.31;5134274;27;20244;-55
2022/08/27 11:48:58;;;;;;;0.68;0.63;;;;;;;37.14;25.99;94881.00;5133948;27;20265;-56
2022/08/27 11:51:31;;;;;;;0.43;0.43;;;;;;;37.18;26.19;94885.16;5134343;27;20192;-55
2022/08/27 11:54:02;;;;;;;1.13;1.13;;;;;;;37.38;25.63;94880.06;5134179;27;20191;-55
2022/08/27 11:56:39;;;;;;;2.97;1.13;;;;;;;35.97;25.65;94840.03;5133913;27;20216;-55
2022/08/27 11:59:20;;;;;;;0.60;0.40;;;;;;;34.83;27.11;94885.97;5134622;27;20270;-55
2022/08/27 12:01:52;;;;;;;0.52;0.52;;;;;;;34.92;27.77;94878.63;5134109;27;20241;-56
2022/08/27 12:04:32;;;;;;;0.30;0.20;;;;;;;34.55;29.49;94879.25;5133611;27;20182;-56
2022/08/27 12:07:04;;;;;;;0.47;0.30;;;;;;;34.20;29.84;94883.69;5134177;27;20214;-56